General Aviation Weather

Text Reports

Enter one or more of the following location identifiers separated by a space:

Zip Code, Four-Character ICAO or Three-Character IATA airport codes.

METAR - Aviation Routine Weather Report
KSMS - Sumter, South Carolina
Updated at 7:55 AM GMT on July 31, 2014 (3:55 AM EDT):
METAR KSMS 310755Z AUTO 00000KT 8SM CLR 20/20 A3005 RMK AO2
TAF - Terminal Area Forecast
KSMS - Sumter, South Carolina
Updated at 7:55 AM GMT on July 31, 2014 (3:55 AM EDT):
No TAF is currently available for this location.
Decoded:
No decoded TAF is available.
PIREP - Pilot Weather Report
KSMS - Sumter, South Carolina
Updated at 7:55 AM GMT on July 31, 2014 (3:55 AM EDT):
No PIREP is currently available for this location.
AIRMET - Airmens Meteorological Information
KSMS - Sumter, South Carolina
Updated at 7:55 AM GMT on July 31, 2014 (3:55 AM EDT):
No AIRMET is currently available for this location.
SIGMET - Significant Meteorological Information
KSMS - Sumter, South Carolina
Updated at 7:55 AM GMT on July 31, 2014 (3:55 AM EDT):
No SIGMET is currently available for this location.
NOTAM - Notice to Airmen
KSMS - Sumter, South Carolina
Updated at 7:55 AM GMT on July 31, 2014 (3:55 AM EDT):
No NOTAM is currently available for this location.
Forecast Area
KSMS - Sumter, South Carolina
Updated at 7:55 AM GMT on July 31, 2014 (3:55 AM EDT):
No NOTAM is currently available for this location.
Aviation Weather Maps